Time;durP1;ratioP1;P1;durP2;ratioP2;P2;SDS_P1;SDS_P2;PMS_P1;PMS_P2;Temp;Humidity;BMP_temperature;BMP_pressure;BME280_temperature;BME280_humidity;BME280_pressure;Samples;Min_cycle;Max_cycle;Signal;HPM_P1;HPM_P2
2022/08/06 00:01:55;;;;;;;25.23;6.13;;;;;;;19.57;100.00;98424.38;5010820;28;20038;-62
2022/08/06 00:04:21;;;;;;;28.30;6.20;;;;;;;19.93;100.00;98430.69;5012185;28;20033;-61
2022/08/06 00:06:46;;;;;;;26.42;5.90;;;;;;;20.45;100.00;98432.13;5011227;28;20034;-61
2022/08/06 00:09:12;;;;;;;38.28;6.85;;;;;;;20.82;100.00;98450.56;5008814;28;20029;-62
2022/08/06 00:11:41;;;;;;;37.20;6.35;;;;;;;21.46;100.00;98438.66;5011221;28;20073;-61
2022/08/06 00:14:07;;;;;;;27.63;6.13;;;;;;;20.39;100.00;98459.91;5010736;28;20029;-61
2022/08/06 00:16:33;;;;;;;35.25;6.32;;;;;;;20.53;100.00;98466.84;5011176;28;20539;-61
2022/08/06 00:18:58;;;;;;;26.80;6.15;;;;;;;19.97;100.00;98455.97;5013791;28;20575;-61
2022/08/06 00:21:23;;;;;;;25.05;5.57;;;;;;;19.40;100.00;98442.28;5010690;28;20520;-61
2022/08/06 00:23:49;;;;;;;32.67;6.38;;;;;;;19.36;100.00;98445.28;5013888;28;20025;-60
2022/08/06 00:26:14;;;;;;;24.70;5.20;;;;;;;21.18;100.00;98454.03;5011009;28;20034;-60
2022/08/06 00:28:39;;;;;;;29.27;5.65;;;;;;;20.19;100.00;98469.31;5012839;28;20752;-61
2022/08/06 00:31:07;;;;;;;18.88;5.20;;;;;;;19.54;100.00;98482.81;5013170;28;20041;-60
2022/08/06 00:33:32;;;;;;;33.00;6.25;;;;;;;19.25;100.00;98483.03;5010755;28;20026;-61
2022/08/06 00:35:58;;;;;;;26.88;5.60;;;;;;;19.43;100.00;98492.34;5009536;28;20041;-62
2022/08/06 00:38:23;;;;;;;39.83;6.95;;;;;;;19.16;100.00;98483.66;4995035;28;20041;-62
2022/08/06 00:40:50;;;;;;;34.97;6.68;;;;;;;19.38;100.00;98481.22;5009232;28;20099;-61
2022/08/06 00:43:15;;;;;;;28.40;5.70;;;;;;;19.08;100.00;98478.91;5011234;28;20033;-61
2022/08/06 00:45:40;;;;;;;27.13;5.60;;;;;;;19.17;100.00;98482.72;5011072;28;20037;-60
2022/08/06 00:48:06;;;;;;;35.75;6.10;;;;;;;19.09;100.00;98485.88;5011809;28;20030;-61
2022/08/06 00:50:32;;;;;;;26.52;5.60;;;;;;;19.01;100.00;98478.47;5009862;28;20030;-61
2022/08/06 00:52:59;;;;;;;30.58;6.13;;;;;;;18.83;100.00;98479.72;5010927;28;20784;-62
2022/08/06 00:55:24;;;;;;;28.92;5.30;;;;;;;18.86;100.00;98467.16;5010970;28;20030;-60
2022/08/06 00:57:50;;;;;;;23.98;4.90;;;;;;;18.62;100.00;98474.06;5012654;28;20017;-62
2022/08/06 01:00:15;;;;;;;31.73;5.20;;;;;;;19.53;100.00;98454.66;5009811;28;20116;-62
2022/08/06 01:02:41;;;;;;;30.67;5.15;;;;;;;18.57;100.00;98455.84;5011385;28;20970;-62
2022/08/06 01:05:06;;;;;;;29.65;5.30;;;;;;;18.89;100.00;98460.78;5010662;28;20990;-60
2022/08/06 01:07:32;;;;;;;27.65;4.82;;;;;;;19.16;100.00;98463.34;5013369;28;20045;-60
2022/08/06 01:09:57;;;;;;;31.38;5.35;;;;;;;18.87;100.00;98489.13;5013746;28;20022;-60
2022/08/06 01:12:23;;;;;;;27.30;5.40;;;;;;;18.82;100.00;98488.59;5009326;28;20037;-60
2022/08/06 01:14:48;;;;;;;22.77;4.38;;;;;;;19.33;100.00;98475.41;5011154;28;20038;-59
2022/08/06 01:17:28;;;;;;;34.35;5.45;;;;;;;19.99;100.00;98472.59;5008741;28;20037;-59
2022/08/06 01:20:19;;;;;;;22.23;4.20;;;;;;;19.56;100.00;98465.03;5010078;28;20112;-59
2022/08/06 01:23:18;;;;;;;18.50;3.65;;;;;;;19.47;100.00;98477.09;5012307;28;20044;-62
2022/08/06 01:26:25;;;;;;;26.83;4.43;;;;;;;19.60;100.00;98472.63;5009291;28;20052;-61
2022/08/06 01:29:04;;;;;;;23.52;4.43;;;;;;;18.83;100.00;98495.56;4986777;28;20038;-61
2022/08/06 01:31:41;;;;;;;31.52;4.68;;;;;;;18.75;100.00;98469.63;5008946;28;20037;-60
2022/08/06 01:34:16;;;;;;;29.35;5.00;;;;;;;18.33;100.00;98494.47;5010212;28;20030;-61
2022/08/06 01:36:55;;;;;;;22.80;4.05;;;;;;;18.54;100.00;98487.75;5010948;28;20026;-62
2022/08/06 01:39:24;;;;;;;35.38;5.32;;;;;;;18.29;100.00;98483.25;5010495;28;20561;-61
2022/08/06 01:41:53;;;;;;;26.13;4.55;;;;;;;18.16;100.00;98493.75;5011243;28;20038;-60
2022/08/06 01:44:23;;;;;;;28.88;4.82;;;;;;;18.82;100.00;98501.81;5012587;28;20535;-60
2022/08/06 01:46:55;;;;;;;19.67;3.65;;;;;;;19.53;100.00;98497.00;5002928;28;20154;-60
2022/08/06 01:49:26;;;;;;;25.63;4.30;;;;;;;19.04;100.00;98490.63;5010248;28;20026;-61
2022/08/06 01:51:56;;;;;;;29.27;4.70;;;;;;;18.58;100.00;98507.75;5007799;28;20113;-62
2022/08/06 01:54:24;;;;;;;24.63;4.30;;;;;;;19.12;100.00;98513.94;5010287;28;20117;-62
2022/08/06 01:56:52;;;;;;;22.90;4.22;;;;;;;18.05;100.00;98517.34;5011580;28;20153;-59
2022/08/06 01:59:22;;;;;;;23.45;4.40;;;;;;;18.19;100.00;98517.28;5009461;28;20720;-60
2022/08/06 02:01:52;;;;;;;27.85;4.57;;;;;;;18.14;100.00;98522.03;5009820;28;20033;-59
2022/08/06 02:04:20;;;;;;;24.55;4.60;;;;;;;18.65;100.00;98522.22;5010705;28;20029;-61
2022/08/06 02:06:50;;;;;;;23.13;4.18;;;;;;;18.80;100.00;98515.09;5010591;28;20042;-60
2022/08/06 02:09:18;;;;;;;24.00;4.45;;;;;;;18.35;100.00;98518.97;5009699;28;20052;-59
2022/08/06 02:11:50;;;;;;;28.73;4.53;;;;;;;18.83;100.00;98520.19;5008626;28;20046;-60
2022/08/06 02:14:20;;;;;;;21.73;4.07;;;;;;;18.76;100.00;98518.03;5011275;28;20029;-60
2022/08/06 02:16:45;;;;;;;31.20;4.63;;;;;;;18.50;100.00;98520.59;5009936;28;20420;-62
2022/08/06 02:19:14;;;;;;;23.48;4.53;;;;;;;18.28;100.00;98516.69;5009268;28;20570;-60
2022/08/06 02:21:43;;;;;;;29.45;4.65;;;;;;;18.13;100.00;98525.63;5008296;28;20048;-60
2022/08/06 02:24:10;;;;;;;25.27;4.05;;;;;;;18.69;100.00;98518.47;4992219;28;20116;-60
2022/08/06 02:26:37;;;;;;;26.83;4.18;;;;;;;18.50;100.00;98515.31;5008663;28;20042;-61
2022/08/06 02:29:05;;;;;;;31.52;5.07;;;;;;;18.41;100.00;98513.28;5009061;28;20036;-63
2022/08/06 02:31:32;;;;;;;24.48;4.18;;;;;;;19.37;100.00;98508.66;5008324;28;20048;-60
2022/08/06 02:33:58;;;;;;;27.55;4.43;;;;;;;19.26;100.00;98512.03;5009314;28;20041;-60
2022/08/06 02:36:34;;;;;;;23.77;4.18;;;;;;;19.52;100.00;98516.44;5008933;28;20037;-62
2022/08/06 02:39:05;;;;;;;27.77;4.53;;;;;;;19.31;100.00;98517.00;5008862;28;20029;-62
2022/08/06 02:42:00;;;;;;;25.35;4.43;;;;;;;18.77;100.00;98530.31;5009444;28;20554;-61
2022/08/06 02:44:34;;;;;;;27.88;4.18;;;;;;;18.78;100.00;98534.63;5009297;28;20076;-60
2022/08/06 02:47:08;;;;;;;33.78;5.40;;;;;;;19.00;100.00;98526.16;5008359;28;20069;-61
2022/08/06 02:49:37;;;;;;;29.23;5.00;;;;;;;17.78;100.00;98546.28;5011647;28;20037;-60
2022/08/06 02:52:25;;;;;;;30.15;5.32;;;;;;;17.70;100.00;98554.66;5006737;28;20065;-60
2022/08/06 02:54:59;;;;;;;29.52;5.05;;;;;;;17.58;100.00;98556.25;5007322;28;20037;-59
2022/08/06 02:57:33;;;;;;;34.08;5.30;;;;;;;18.40;100.00;98553.84;5006955;28;20083;-59
2022/08/06 03:00:03;;;;;;;29.17;4.63;;;;;;;19.84;100.00;98541.56;5009790;28;20025;-59
2022/08/06 03:02:31;;;;;;;26.38;4.40;;;;;;;19.46;100.00;98536.25;5008786;28;20042;-60
2022/08/06 03:04:59;;;;;;;21.30;3.90;;;;;;;19.70;100.00;98536.34;5008678;28;20021;-60
2022/08/06 03:07:27;;;;;;;31.00;5.25;;;;;;;18.46;100.00;98545.53;5006343;28;20046;-59
2022/08/06 03:09:53;;;;;;;37.20;5.63;;;;;;;17.65;100.00;98568.13;5010341;28;20462;-60
2022/08/06 03:12:20;;;;;;;31.90;5.05;;;;;;;18.07;100.00;98569.09;5007732;28;20666;-59
2022/08/06 03:14:48;;;;;;;30.90;4.97;;;;;;;18.04;100.00;98574.56;5010066;28;20021;-59
2022/08/06 03:17:16;;;;;;;27.30;4.40;;;;;;;18.94;100.00;98564.44;5007897;28;20124;-59
2022/08/06 03:19:44;;;;;;;24.63;4.63;;;;;;;18.48;100.00;98562.97;5009729;28;20091;-59
2022/08/06 03:22:11;;;;;;;29.45;5.10;;;;;;;17.27;100.00;98567.78;5006730;28;20034;-62
2022/08/06 03:24:39;;;;;;;26.10;4.75;;;;;;;17.58;100.00;98571.25;5007405;28;20065;-60
2022/08/06 03:27:06;;;;;;;29.83;4.95;;;;;;;17.75;100.00;98568.41;5008462;28;20418;-61
2022/08/06 03:29:34;;;;;;;36.35;6.05;;;;;;;17.48;100.00;98577.06;5009184;28;20432;-60
2022/08/06 03:32:00;;;;;;;25.58;4.97;;;;;;;17.47;100.00;98563.97;5009236;28;20728;-60
2022/08/06 03:34:29;;;;;;;29.38;5.55;;;;;;;17.09;100.00;98567.97;5007981;28;20018;-60
2022/08/06 03:36:56;;;;;;;28.85;5.10;;;;;;;17.11;100.00;98570.47;5008784;28;20099;-62
2022/08/06 03:39:25;;;;;;;27.52;5.05;;;;;;;17.24;100.00;98567.97;5009968;28;20092;-60
2022/08/06 03:41:51;;;;;;;20.15;4.63;;;;;;;17.34;100.00;98580.50;5006657;28;20034;-62
2022/08/06 03:44:17;;;;;;;22.65;4.85;;;;;;;17.36;100.00;98572.53;5011827;28;20373;-61
2022/08/06 03:46:55;;;;;;;32.10;5.05;;;;;;;17.82;100.00;98582.91;5010752;28;20036;-60
2022/08/06 03:49:30;;;;;;;27.73;4.45;;;;;;;18.47;100.00;98581.53;5010584;28;20033;-61
2022/08/06 03:52:00;;;;;;;24.70;4.10;;;;;;;18.96;100.00;98562.53;5011438;28;20042;-60
2022/08/06 03:54:28;;;;;;;19.13;4.00;;;;;;;18.54;100.00;98577.56;5011496;28;20060;-59
2022/08/06 03:56:59;;;;;;;28.90;4.70;;;;;;;18.49;100.00;98577.88;5013746;28;20075;-59
2022/08/06 03:59:26;;;;;;;22.70;4.50;;;;;;;17.64;100.00;98594.59;5011541;28;20140;-59
2022/08/06 04:01:52;;;;;;;29.98;4.93;;;;;;;18.82;100.00;98581.09;5013699;28;20037;-60
2022/08/06 04:04:20;;;;;;;22.38;4.07;;;;;;;18.42;100.00;98604.78;5012524;28;20048;-59
2022/08/06 04:06:46;;;;;;;29.90;5.15;;;;;;;17.68;100.00;98607.53;5012373;28;20566;-59
2022/08/06 04:09:12;;;;;;;25.67;4.32;;;;;;;17.54;100.00;98628.59;5009058;28;20033;-59
2022/08/06 04:11:37;;;;;;;24.02;4.40;;;;;;;17.84;100.00;98617.97;5012360;28;20048;-60
2022/08/06 04:14:04;;;;;;;27.23;4.93;;;;;;;17.68;100.00;98617.19;5012458;28;20034;-60
2022/08/06 04:16:31;;;;;;;25.50;5.25;;;;;;;17.36;100.00;98622.63;5011652;28;20176;-59
2022/08/06 04:18:57;;;;;;;33.17;6.00;;;;;;;17.00;100.00;98617.69;5011456;28;20037;-60
2022/08/06 04:21:24;;;;;;;24.90;5.00;;;;;;;16.87;100.00;98618.41;5012282;28;20044;-60
2022/08/06 04:23:51;;;;;;;32.33;4.93;;;;;;;17.04;100.00;98620.06;5011100;28;20022;-61
2022/08/06 04:26:22;;;;;;;24.95;4.95;;;;;;;17.04;100.00;98625.34;5012595;28;20045;-61
2022/08/06 04:28:51;;;;;;;27.85;5.20;;;;;;;17.19;100.00;98633.31;5013242;28;20163;-60
2022/08/06 04:31:19;;;;;;;27.30;5.00;;;;;;;16.95;100.00;98631.16;5011041;28;20038;-60
2022/08/06 04:33:45;;;;;;;27.33;5.00;;;;;;;17.36;100.00;98624.41;5012410;28;20120;-60
2022/08/06 04:36:12;;;;;;;35.22;5.90;;;;;;;17.28;100.00;98632.78;5012260;28;20041;-60
2022/08/06 04:38:39;;;;;;;26.67;4.72;;;;;;;17.86;100.00;98628.47;5011196;28;20026;-59
2022/08/06 04:41:05;;;;;;;29.30;4.78;;;;;;;19.04;100.00;98628.97;5011511;28;20038;-59
2022/08/06 04:43:31;;;;;;;23.75;4.22;;;;;;;17.92;100.00;98639.53;5012816;28;20079;-60
2022/08/06 04:45:57;;;;;;;20.33;4.40;;;;;;;17.86;100.00;98642.50;5010543;28;20058;-60
2022/08/06 04:48:24;;;;;;;25.73;4.38;;;;;;;18.27;100.00;98647.06;5011689;28;20049;-60
2022/08/06 04:50:49;;;;;;;25.33;4.63;;;;;;;18.67;100.00;98639.25;5010139;28;20087;-60
2022/08/06 04:53:17;;;;;;;29.30;5.15;;;;;;;18.61;100.00;98644.91;5011127;28;20021;-59
2022/08/06 04:55:44;;;;;;;23.48;4.35;;;;;;;18.80;100.00;98649.03;5009919;28;20845;-59
2022/08/06 04:58:11;;;;;;;20.23;3.88;;;;;;;18.87;100.00;98650.34;5011637;28;20034;-59
2022/08/06 05:00:40;;;;;;;29.27;5.72;;;;;;;17.70;100.00;98661.03;5010494;28;20033;-59
2022/08/06 05:03:06;;;;;;;27.63;4.85;;;;;;;18.96;100.00;98667.44;5012597;28;20440;-60
2022/08/06 05:05:37;;;;;;;27.08;5.20;;;;;;;18.78;100.00;98657.03;5013276;28;20518;-59
2022/08/06 05:08:04;;;;;;;31.40;5.68;;;;;;;18.91;100.00;98649.22;5011511;28;20036;-59
2022/08/06 05:10:35;;;;;;;30.67;5.28;;;;;;;18.04;100.00;98664.31;5010778;28;20041;-59
2022/08/06 05:13:02;;;;;;;24.45;4.38;;;;;;;19.19;100.00;98658.00;5011264;28;20033;-59
2022/08/06 05:15:40;;;;;;;37.42;5.97;;;;;;;18.05;100.00;98666.00;5010826;28;20040;-60
2022/08/06 05:18:13;;;;;;;23.20;4.53;;;;;;;18.69;100.00;98661.16;5010337;28;20032;-59
2022/08/06 05:20:41;;;;;;;27.27;4.93;;;;;;;18.82;100.00;98668.31;5009441;28;20037;-59
2022/08/06 05:23:21;;;;;;;17.92;3.88;;;;;;;18.72;100.00;98673.31;5011375;28;20530;-59
2022/08/06 05:25:49;;;;;;;24.40;4.20;;;;;;;18.95;100.00;98671.00;5009541;28;20044;-59
2022/08/06 05:28:14;;;;;;;27.25;4.47;;;;;;;19.37;100.00;98672.66;5010966;28;20030;-59
2022/08/06 05:30:48;;;;;;;27.90;4.95;;;;;;;18.60;100.00;98682.88;5009181;28;20053;-59
2022/08/06 05:33:37;;;;;;;21.23;4.40;;;;;;;18.65;100.00;98678.13;5010663;28;20025;-60
2022/08/06 05:36:08;;;;;;;21.10;4.03;;;;;;;18.96;100.00;98672.72;5010433;28;20699;-59
2022/08/06 05:38:36;;;;;;;27.60;4.45;;;;;;;19.84;100.00;98671.25;5011411;28;20029;-59
2022/08/06 05:41:07;;;;;;;23.27;4.60;;;;;;;18.62;100.00;98680.97;5009175;28;20034;-59
2022/08/06 05:43:33;;;;;;;25.08;4.43;;;;;;;19.35;100.00;98666.59;5011339;28;20032;-59
2022/08/06 05:46:04;;;;;;;29.02;4.60;;;;;;;19.58;100.00;98658.94;5010541;28;20033;-59
2022/08/06 05:48:34;;;;;;;25.40;4.63;;;;;;;19.36;100.00;98670.94;5010817;28;20021;-59
2022/08/06 05:51:19;;;;;;;26.88;4.60;;;;;;;20.69;100.00;98664.53;5010276;28;20034;-59
2022/08/06 05:53:50;;;;;;;26.50;4.57;;;;;;;20.52;100.00;98669.19;5010633;28;20038;-59
2022/08/06 05:56:20;;;;;;;19.25;3.45;;;;;;;22.30;100.00;98662.22;5010259;28;20037;-60
2022/08/06 05:58:53;;;;;;;23.20;4.38;;;;;;;20.36;100.00;98669.44;5010676;28;20029;-59
2022/08/06 06:01:19;;;;;;;22.35;3.75;;;;;;;22.77;100.00;98670.84;5008099;28;20095;-60
2022/08/06 06:03:46;;;;;;;22.48;3.70;;;;;;;22.37;100.00;98663.44;5009063;28;20046;-60
2022/08/06 06:06:12;;;;;;;17.63;3.40;;;;;;;22.35;100.00;98676.00;5009016;28;20076;-60
2022/08/06 06:08:38;;;;;;;25.77;4.45;;;;;;;23.38;100.00;98674.81;5009427;28;20029;-60
2022/08/06 06:11:07;;;;;;;31.05;4.53;;;;;;;25.96;97.35;98677.97;5007585;28;20034;-60
2022/08/06 06:13:33;;;;;;;28.05;3.80;;;;;;;25.61;81.18;98679.41;5009832;28;20041;-59
2022/08/06 06:16:23;;;;;;;24.75;3.78;;;;;;;24.04;100.00;98685.25;5008097;28;20070;-59
2022/08/06 06:19:05;;;;;;;17.73;3.05;;;;;;;27.69;61.81;98670.94;5010698;28;20761;-60
2022/08/06 06:22:00;;;;;;;21.95;3.38;;;;;;;28.34;52.36;98668.84;5010338;28;20419;-60
2022/08/06 06:24:32;;;;;;;18.65;3.00;;;;;;;29.09;49.45;98666.28;4987507;28;20042;-60
2022/08/06 06:27:07;;;;;;;18.42;3.00;;;;;;;27.96;49.49;98677.19;5011278;28;20030;-60
2022/08/06 06:29:40;;;;;;;18.48;2.92;;;;;;;29.30;44.77;98678.44;5009892;28;20025;-60
2022/08/06 06:32:38;;;;;;;15.48;2.75;;;;;;;31.90;43.46;98679.47;5008554;28;20041;-60
2022/08/06 06:35:17;;;;;;;19.15;2.90;;;;;;;30.13;39.44;98690.88;4997228;28;20099;-60
2022/08/06 06:37:46;;;;;;;16.80;2.92;;;;;;;30.87;40.16;98683.38;5010580;28;20052;-60
2022/08/06 06:40:53;;;;;;;23.25;3.63;;;;;;;31.69;39.66;98682.88;5004585;28;20112;-61
2022/08/06 06:43:30;;;;;;;21.15;3.20;;;;;;;29.23;41.02;98683.66;4999222;28;20044;-60
2022/08/06 06:46:30;;;;;;;13.90;2.53;;;;;;;29.00;41.11;98689.63;5009325;28;20033;-60
2022/08/06 06:49:01;;;;;;;13.75;2.47;;;;;;;28.78;42.52;98700.94;4998283;28;20041;-60
2022/08/06 06:51:55;;;;;;;18.63;3.03;;;;;;;28.53;41.39;98687.44;5008645;28;20128;-59
2022/08/06 06:54:27;;;;;;;19.25;3.00;;;;;;;28.91;39.46;98695.97;5010166;28;20084;-60
2022/08/06 06:56:56;;;;;;;16.25;2.70;;;;;;;27.38;41.20;98696.47;5011050;28;20120;-60
2022/08/06 06:59:43;;;;;;;17.98;2.70;;;;;;;28.73;42.74;98703.25;5010186;28;20121;-61
2022/08/06 07:02:16;;;;;;;18.08;2.72;;;;;;;25.63;46.21;98705.97;5010432;28;20073;-60
2022/08/06 07:04:42;;;;;;;21.90;3.15;;;;;;;25.27;45.54;98709.16;5009190;28;20389;-59
2022/08/06 07:07:08;;;;;;;16.63;2.55;;;;;;;29.22;39.74;98703.44;5008816;28;20526;-62
2022/08/06 07:09:35;;;;;;;20.33;3.08;;;;;;;29.18;41.48;98707.47;5010012;28;20125;-59
2022/08/06 07:12:02;;;;;;;15.77;2.60;;;;;;;29.26;40.36;98704.78;5009044;28;20100;-59
2022/08/06 07:14:29;;;;;;;17.70;2.88;;;;;;;27.26;40.03;98709.25;5008247;28;20040;-59
2022/08/06 07:16:58;;;;;;;17.92;2.72;;;;;;;29.52;38.84;98701.13;5007871;28;20041;-59
2022/08/06 07:19:24;;;;;;;15.52;2.50;;;;;;;29.25;39.60;98703.13;5012860;28;20032;-59
2022/08/06 07:21:51;;;;;;;19.40;3.03;;;;;;;28.87;38.58;98705.31;5011082;28;20606;-59
2022/08/06 07:24:17;;;;;;;23.85;3.38;;;;;;;28.50;39.28;98708.34;5013120;28;20037;-58
2022/08/06 07:26:44;;;;;;;22.27;3.08;;;;;;;28.79;39.41;98702.63;5012697;28;20038;-59
2022/08/06 07:29:12;;;;;;;10.95;2.05;;;;;;;27.79;42.20;98704.84;5014795;28;20108;-60
2022/08/06 07:31:40;;;;;;;19.25;2.95;;;;;;;27.00;44.25;98719.78;5012046;28;20041;-60
2022/08/06 07:34:06;;;;;;;17.30;2.70;;;;;;;26.72;42.69;98707.28;5014115;28;20066;-59
2022/08/06 07:36:35;;;;;;;13.52;2.38;;;;;;;27.37;43.29;98711.69;5011798;28;20689;-60
2022/08/06 07:39:21;;;;;;;18.05;3.00;;;;;;;27.25;42.24;98712.88;5000245;28;20041;-60
2022/08/06 07:41:50;;;;;;;18.83;2.70;;;;;;;28.07;40.38;98709.09;5013656;28;20128;-60
2022/08/06 07:44:19;;;;;;;12.00;2.10;;;;;;;25.21;42.19;98715.88;5013394;28;20477;-60
2022/08/06 07:46:50;;;;;;;19.65;2.92;;;;;;;25.61;43.74;98715.97;5012049;28;20064;-61
2022/08/06 07:49:19;;;;;;;19.10;2.78;;;;;;;28.46;40.95;98723.91;5013566;28;20084;-60
2022/08/06 07:51:46;;;;;;;13.00;2.35;;;;;;;28.23;40.71;98723.59;5010470;28;20037;-59
2022/08/06 07:54:13;;;;;;;22.05;3.10;;;;;;;28.10;39.68;98723.19;5010871;28;20030;-60
2022/08/06 07:56:43;;;;;;;16.15;2.60;;;;;;;28.03;39.50;98720.28;5010248;28;20041;-61
2022/08/06 07:59:09;;;;;;;23.33;3.55;;;;;;;30.06;36.56;98723.00;5012206;28;20034;-61
2022/08/06 08:01:36;;;;;;;14.27;2.40;;;;;;;28.13;39.64;98723.72;5010080;28;20675;-60
2022/08/06 08:06:47;;;;;;;13.80;2.30;;;;;;;28.33;39.68;98728.88;5010107;28;20576;-61
2022/08/06 08:09:17;;;;;;;19.45;3.00;;;;;;;28.93;37.99;98736.94;5012127;28;20029;-60
2022/08/06 08:11:46;;;;;;;16.08;2.80;;;;;;;28.84;36.75;98728.00;5010047;28;20053;-60
2022/08/06 08:14:13;;;;;;;16.17;2.53;;;;;;;29.45;36.56;98727.00;5009416;28;20064;-61
2022/08/06 08:16:41;;;;;;;13.18;2.30;;;;;;;26.27;40.77;98732.06;5012357;28;20044;-60
2022/08/06 08:19:38;;;;;;;17.17;2.83;;;;;;;28.27;38.54;98735.72;5011478;28;20079;-60
2022/08/06 08:22:15;;;;;;;16.45;2.83;;;;;;;30.33;36.42;98735.25;4973269;28;20854;-59
2022/08/06 08:24:42;;;;;;;17.25;2.95;;;;;;;29.87;35.64;98732.25;5006178;28;20038;-61
2022/08/06 08:27:10;;;;;;;12.57;2.38;;;;;;;30.80;35.07;98738.13;4994102;28;20049;-59
2022/08/06 08:29:37;;;;;;;19.67;3.22;;;;;;;31.11;33.90;98732.78;4992888;28;20029;-60
2022/08/06 08:32:04;;;;;;;16.42;3.00;;;;;;;27.33;38.12;98730.88;4991256;28;20056;-59
2022/08/06 08:34:30;;;;;;;18.92;2.90;;;;;;;27.90;38.14;98733.28;4993543;28;20057;-61
2022/08/06 08:36:56;;;;;;;17.50;2.95;;;;;;;29.35;36.51;98741.44;4990676;28;20038;-60
2022/08/06 08:39:21;;;;;;;15.00;2.65;;;;;;;31.23;33.50;98731.38;4992620;28;20092;-60
2022/08/06 08:41:50;;;;;;;14.25;2.63;;;;;;;31.38;33.34;98730.63;4990561;28;20042;-60
2022/08/06 08:44:23;;;;;;;14.65;2.58;;;;;;;31.41;33.14;98736.50;4992306;28;20030;-61
2022/08/06 08:46:49;;;;;;;13.95;2.70;;;;;;;30.48;35.75;98726.47;4991679;28;20064;-61
2022/08/06 08:49:41;;;;;;;11.95;2.22;;;;;;;29.24;36.94;98738.19;4993205;28;20027;-61
2022/08/06 08:52:19;;;;;;;14.13;2.63;;;;;;;31.39;34.08;98740.38;4990499;28;20050;-61
2022/08/06 08:54:48;;;;;;;19.27;3.03;;;;;;;27.20;38.19;98725.88;4991413;28;20092;-61
2022/08/06 08:57:15;;;;;;;12.32;2.50;;;;;;;28.85;35.76;98731.50;4990330;28;20037;-61
2022/08/06 08:59:41;;;;;;;14.30;2.63;;;;;;;29.59;36.46;98729.88;4991507;28;20029;-61
2022/08/06 09:02:11;;;;;;;12.13;2.50;;;;;;;31.48;33.86;98728.53;4990268;28;20445;-61
2022/08/06 09:04:37;;;;;;;15.95;2.50;;;;;;;30.86;36.05;98735.59;4989988;28;20034;-60
2022/08/06 09:07:03;;;;;;;18.45;3.25;;;;;;;32.26;32.89;98721.16;4987121;28;20858;-63
2022/08/06 09:09:31;;;;;;;12.32;2.55;;;;;;;32.37;32.20;98728.81;4991027;28;20054;-64
2022/08/06 09:11:57;;;;;;;18.20;3.22;;;;;;;30.17;32.58;98730.69;4989485;28;20034;-63
2022/08/06 09:14:23;;;;;;;13.25;2.70;;;;;;;30.01;34.28;98729.88;4991310;28;20117;-63
2022/08/06 09:16:49;;;;;;;14.20;2.90;;;;;;;30.54;34.23;98736.53;4990795;28;20150;-62
2022/08/06 09:19:15;;;;;;;15.68;2.78;;;;;;;31.58;32.70;98728.28;4990391;28;20480;-63
2022/08/06 09:21:40;;;;;;;18.85;2.97;;;;;;;31.60;32.57;98727.13;4990339;28;20084;-63
2022/08/06 09:24:06;;;;;;;17.33;2.85;;;;;;;31.18;33.58;98728.38;4990520;28;20018;-63
2022/08/06 09:26:33;;;;;;;15.02;2.55;;;;;;;31.32;32.26;98724.94;4990424;28;20042;-62
2022/08/06 09:28:59;;;;;;;14.32;2.83;;;;;;;31.80;33.45;98726.59;4987993;28;20022;-63
2022/08/06 09:31:25;;;;;;;8.32;2.00;;;;;;;32.38;31.45;98714.25;4986487;28;20046;-65
2022/08/06 09:33:56;;;;;;;13.10;2.65;;;;;;;31.07;34.50;98726.09;4989997;28;20057;-65
2022/08/06 09:36:22;;;;;;;;;;;;;;;31.33;34.18;98720.38;4989602;28;20464;-63
2022/08/06 09:38:59;;;;;;;13.40;2.45;;;;;;;31.08;35.35;98716.97;4974786;28;20387;-65
2022/08/06 09:41:31;;;;;;;12.70;2.40;;;;;;;29.19;35.77;98725.28;4988674;28;20058;-65
2022/08/06 09:43:57;;;;;;;9.07;2.00;;;;;;;31.22;33.88;98715.38;4975911;28;20027;-63
2022/08/06 09:46:41;;;;;;;19.05;3.30;;;;;;;29.77;34.89;98705.53;4987510;28;20648;-62
2022/08/06 09:49:10;;;;;;;17.13;2.97;;;;;;;31.01;34.73;98710.59;4988802;28;20034;-65
2022/08/06 09:51:37;;;;;;;10.70;2.33;;;;;;;31.97;33.59;98708.44;4990278;28;20066;-63
2022/08/06 09:54:05;;;;;;;13.10;2.47;;;;;;;29.66;37.80;98710.38;4990478;28;20026;-63
2022/08/06 09:56:31;;;;;;;13.45;2.70;;;;;;;30.20;36.03;98717.91;4990117;28;20049;-63
2022/08/06 09:59:02;;;;;;;11.75;2.40;;;;;;;29.92;35.08;98713.78;4990429;28;20087;-62
2022/08/06 10:01:28;;;;;;;17.95;3.10;;;;;;;31.80;33.31;98722.06;4989705;28;20105;-62
2022/08/06 10:03:57;;;;;;;12.80;2.42;;;;;;;31.04;35.50;98715.66;4988381;28;20031;-63
2022/08/06 10:06:23;;;;;;;16.45;2.92;;;;;;;29.96;35.13;98704.34;4990951;28;20045;-63
2022/08/06 10:09:03;;;;;;;9.77;2.08;;;;;;;31.85;34.95;98711.59;4990008;28;20033;-62
2022/08/06 10:11:34;;;;;;;14.30;2.85;;;;;;;31.63;31.91;98702.50;4990957;28;20038;-62
2022/08/06 10:13:59;;;;;;;9.15;2.08;;;;;;;31.32;33.02;98706.06;4990164;28;20022;-62
2022/08/06 10:16:29;;;;;;;14.50;2.45;;;;;;;30.27;35.05;98710.84;4989884;28;20038;-62
2022/08/06 10:18:56;;;;;;;12.85;2.65;;;;;;;29.76;36.83;98716.47;4988630;28;20030;-62
2022/08/06 10:21:25;;;;;;;11.40;2.30;;;;;;;29.66;34.90;98710.38;4988395;28;20091;-65
2022/08/06 10:23:54;;;;;;;13.88;2.40;;;;;;;29.03;35.09;98713.44;4988642;28;20014;-62
2022/08/06 10:26:27;;;;;;;12.48;2.45;;;;;;;29.15;36.15;98716.72;4989750;28;20046;-62
2022/08/06 10:28:53;;;;;;;13.35;2.50;;;;;;;29.10;35.64;98713.63;4990642;28;20116;-62
2022/08/06 10:31:20;;;;;;;13.02;2.55;;;;;;;30.68;33.51;98716.97;4990317;28;20057;-64
2022/08/06 10:34:08;;;;;;;19.98;3.17;;;;;;;30.54;33.50;98715.84;4988098;28;20030;-64
2022/08/06 10:36:43;;;;;;;14.25;2.70;;;;;;;30.68;33.45;98706.22;4989647;28;20133;-63
2022/08/06 10:39:09;;;;;;;11.98;2.47;;;;;;;29.93;32.16;98711.91;4990688;28;20022;-64
2022/08/06 10:41:38;;;;;;;11.93;2.45;;;;;;;29.58;34.29;98713.91;4989391;28;20039;-64
2022/08/06 10:44:04;;;;;;;11.95;2.47;;;;;;;32.40;30.90;98711.38;4990006;28;20632;-62
2022/08/06 10:46:31;;;;;;;11.48;2.22;;;;;;;30.54;33.29;98720.38;4989875;28;20843;-65
2022/08/06 10:48:58;;;;;;;18.35;2.88;;;;;;;29.23;33.69;98705.13;4986997;28;20054;-62
2022/08/06 10:51:24;;;;;;;14.82;2.67;;;;;;;30.13;32.95;98702.47;4985189;28;20049;-62
2022/08/06 10:53:50;;;;;;;13.77;2.53;;;;;;;32.64;30.30;98702.19;4989232;28;20081;-62
2022/08/06 10:56:17;;;;;;;12.70;2.30;;;;;;;30.64;32.85;98695.94;4994651;28;20564;-66
2022/08/06 10:58:43;;;;;;;15.98;2.95;;;;;;;30.13;32.95;98691.72;4977639;28;20030;-63
2022/08/06 11:01:17;;;;;;;11.88;2.50;;;;;;;31.60;31.04;98694.75;4993649;28;20041;-62
2022/08/06 11:04:10;;;;;;;13.07;2.42;;;;;;;29.37;34.35;98695.56;4993140;28;20026;-62
2022/08/06 11:07:00;;;;;;;12.65;2.30;;;;;;;28.29;36.26;98695.31;4993800;28;20041;-62
2022/08/06 11:09:40;;;;;;;14.23;2.70;;;;;;;27.88;36.06;98701.22;4992240;28;20719;-62
2022/08/06 11:12:30;;;;;;;20.17;3.10;;;;;;;30.72;32.02;98691.38;4984838;28;20130;-62
2022/08/06 11:14:58;;;;;;;12.40;2.25;;;;;;;29.10;32.12;98689.47;4994117;28;20112;-62
2022/08/06 11:17:23;;;;;;;13.25;2.60;;;;;;;28.27;33.01;98688.28;4976632;28;20042;-65
2022/08/06 11:19:49;;;;;;;14.48;2.80;;;;;;;28.99;32.19;98687.09;4991827;28;20026;-62
2022/08/06 11:22:37;;;;;;;23.65;3.85;;;;;;;27.10;34.44;98686.59;4988438;28;20124;-62
2022/08/06 11:25:06;;;;;;;14.00;2.53;;;;;;;28.64;34.40;98683.63;4992213;28;20014;-66
2022/08/06 11:27:56;;;;;;;15.43;2.80;;;;;;;28.06;34.01;98682.44;4992763;28;20046;-64
2022/08/06 11:30:40;;;;;;;20.20;3.15;;;;;;;28.37;33.43;98684.63;4990200;28;20022;-62
2022/08/06 11:33:05;;;;;;;18.83;2.95;;;;;;;27.99;33.52;98684.94;4994225;28;20104;-62
2022/08/06 11:35:34;;;;;;;16.38;2.70;;;;;;;29.32;34.01;98677.28;4992412;28;20581;-62
2022/08/06 11:38:00;;;;;;;19.25;3.08;;;;;;;29.23;33.38;98672.91;4993406;28;20026;-62
2022/08/06 11:40:26;;;;;;;18.90;3.10;;;;;;;28.92;33.08;98675.31;4993139;28;20038;-62